Time;durP1;ratioP1;P1;durP2;ratioP2;P2;SDS_P1;SDS_P2;PMS_P1;PMS_P2;Temp;Humidity;BMP_temperature;BMP_pressure;BME280_temperature;BME280_humidity;BME280_pressure;Samples;Min_cycle;Max_cycle;Signal;HPM_P1;HPM_P2
2022/12/22 03:27:08;;;;;;;1.30;0.90;;;6.50;99.90;;;;;;5031247;28;20106;-53
2022/12/22 03:29:35;;;;;;;0.65;0.60;;;6.50;99.90;;;;;;5031034;28;20168;-52
2022/12/22 03:32:02;;;;;;;0.60;0.60;;;6.60;99.90;;;;;;5030554;28;20102;-53
2022/12/22 03:34:28;;;;;;;0.70;0.70;;;6.60;99.90;;;;;;5030830;28;20563;-52
2022/12/22 03:36:55;;;;;;;0.63;0.63;;;6.70;99.90;;;;;;5029840;28;20064;-50
2022/12/22 03:39:22;;;;;;;0.95;0.73;;;6.70;99.90;;;;;;5032177;28;20048;-53
2022/12/22 03:47:20;;;;;;;0.88;0.70;;;7.00;99.90;;;;;;5028697;28;20142;-51
2022/12/22 03:49:46;;;;;;;0.50;0.40;;;7.10;99.90;;;;;;5029548;28;20053;-51
2022/12/22 03:52:13;;;;;;;;;;;7.20;99.90;;;;;;5015076;28;20136;-53
2022/12/22 03:54:40;;;;;;;1.05;0.40;;;7.30;99.90;;;;;;5032890;28;20241;-53
2022/12/22 03:57:06;;;;;;;1.73;0.50;;;7.40;99.90;;;;;;5037614;28;20215;-52
2022/12/22 03:59:33;;;;;;;0.50;0.50;;;7.60;99.90;;;;;;5036337;28;20051;-52
2022/12/22 04:02:00;;;;;;;0.55;0.32;;;7.70;99.90;;;;;;5026362;28;20119;-53
2022/12/22 04:04:27;;;;;;;0.47;0.43;;;7.70;99.90;;;;;;5029355;28;20044;-50
2022/12/22 04:06:53;;;;;;;;;;;7.80;99.90;;;;;;5029710;28;20053;-50
2022/12/22 04:09:21;;;;;;;1.15;0.60;;;7.80;99.90;;;;;;5030862;28;20192;-55
2022/12/22 04:14:34;;;;;;;0.40;0.40;;;7.80;99.90;;;;;;5029848;28;20040;-50
2022/12/22 04:17:02;;;;;;;3.15;0.70;;;7.80;99.90;;;;;;5030253;28;20597;-50
2022/12/22 04:19:29;;;;;;;1.38;0.50;;;7.80;99.90;;;;;;5030755;28;20197;-51
2022/12/22 04:21:56;;;;;;;4.10;0.80;;;7.80;99.90;;;;;;5031785;28;20049;-51
2022/12/22 04:24:23;;;;;;;1.75;0.50;;;7.80;99.90;;;;;;5028304;28;20127;-53
2022/12/22 04:26:50;;;;;;;4.95;1.17;;;7.80;99.90;;;;;;5031527;28;20052;-49
2022/12/22 04:29:17;;;;;;;;;;;7.70;99.90;;;;;;5028833;28;20077;-53
2022/12/22 04:31:43;;;;;;;4.78;0.60;;;7.70;99.90;;;;;;5028166;28;19964;-52
2022/12/22 04:34:10;;;;;;;;;;;7.70;99.90;;;;;;5032038;28;20056;-51
2022/12/22 04:36:37;;;;;;;2.55;1.20;;;7.70;99.90;;;;;;5031251;28;19924;-52
2022/12/22 04:39:04;;;;;;;;;;;7.60;99.90;;;;;;5029822;28;20037;-54
2022/12/22 04:41:30;;;;;;;4.65;1.10;;;7.60;99.90;;;;;;5030379;28;20427;-49
2022/12/22 04:43:57;;;;;;;3.67;1.35;;;7.60;99.90;;;;;;5027355;28;20364;-53
2022/12/22 04:46:24;;;;;;;2.13;1.00;;;7.60;99.90;;;;;;5030004;28;20320;-52
2022/12/22 04:48:51;;;;;;;2.50;1.00;;;7.60;99.90;;;;;;5022238;28;20273;-50
2022/12/22 04:51:25;;;;;;;6.93;1.15;;;7.50;99.90;;;;;;5029598;28;20120;-53
2022/12/22 04:53:52;;;;;;;;;;;7.50;99.90;;;;;;5031993;28;20151;-50
2022/12/22 04:56:18;;;;;;;7.68;1.10;;;7.50;99.90;;;;;;5030806;28;19955;-52
2022/12/22 04:58:45;;;;;;;;;;;7.40;99.90;;;;;;5030779;28;20288;-51
2022/12/22 05:01:14;;;;;;;3.60;0.90;;;7.40;99.90;;;;;;5031727;28;19968;-53
2022/12/22 05:03:42;;;;;;;3.38;1.27;;;7.40;99.90;;;;;;5030585;28;20041;-52
2022/12/22 05:06:09;;;;;;;2.58;0.88;;;7.30;99.90;;;;;;5028639;28;20037;-52
2022/12/22 05:08:36;;;;;;;4.63;1.33;;;7.30;99.90;;;;;;5026968;28;20079;-52
2022/12/22 05:11:02;;;;;;;;;;;7.20;99.90;;;;;;5027523;28;20134;-51
2022/12/22 05:13:30;;;;;;;4.18;1.30;;;7.20;99.90;;;;;;5029744;28;19928;-52
2022/12/22 05:16:06;;;;;;;2.95;0.80;;;7.10;99.90;;;;;;5029685;28;20071;-51
2022/12/22 05:18:34;;;;;;;4.07;0.93;;;7.10;99.90;;;;;;5028001;28;20438;-53
2022/12/22 05:21:03;;;;;;;6.95;1.20;;;7.10;99.90;;;;;;5029137;28;20054;-50
2022/12/22 05:23:30;;;;;;;1.20;0.70;;;7.00;99.90;;;;;;5028479;28;20053;-51
2022/12/22 05:25:57;;;;;;;5.22;1.73;;;6.90;99.90;;;;;;5029561;28;20148;-52
2022/12/22 05:28:23;;;;;;;;;;;6.80;99.90;;;;;;5028784;28;20045;-52
2022/12/22 05:30:51;;;;;;;4.55;1.00;;;6.80;99.90;;;;;;5029046;28;20317;-52
2022/12/22 05:33:18;;;;;;;1.98;1.08;;;6.70;99.90;;;;;;5028005;28;20037;-50
2022/12/22 05:35:45;;;;;;;4.40;1.00;;;6.60;99.90;;;;;;5027404;28;20040;-54
2022/12/22 05:38:11;;;;;;;;;;;6.60;99.90;;;;;;5030528;28;20570;-52
2022/12/22 05:40:38;;;;;;;24.67;2.20;;;6.50;99.90;;;;;;5027996;28;20306;-52
2022/12/22 05:43:05;;;;;;;6.72;1.35;;;6.50;99.90;;;;;;5026602;28;20068;-52
2022/12/22 05:45:31;;;;;;;5.93;0.93;;;6.50;99.90;;;;;;5027322;28;20371;-52
2022/12/22 05:47:58;;;;;;;3.83;1.30;;;6.40;99.90;;;;;;5029931;28;20152;-53
2022/12/22 05:50:25;;;;;;;5.05;0.95;;;6.40;99.90;;;;;;5027233;28;20044;-52
2022/12/22 05:53:04;;;;;;;1.45;0.90;;;6.30;99.90;;;;;;5027662;28;20050;-52
2022/12/22 05:55:31;;;;;;;2.88;1.13;;;6.30;99.90;;;;;;5029159;28;20118;-51
2022/12/22 05:58:00;;;;;;;;;;;6.20;99.90;;;;;;5026932;28;20539;-52
2022/12/22 06:00:31;;;;;;;4.90;1.00;;;6.20;99.90;;;;;;5032038;28;19932;-54
2022/12/22 06:02:58;;;;;;;5.68;1.30;;;6.20;99.90;;;;;;5029131;28;20122;-52
2022/12/22 06:05:25;;;;;;;5.25;1.92;;;6.20;99.90;;;;;;5030914;28;20137;-53
2022/12/22 06:07:51;;;;;;;1.45;1.08;;;6.20;99.90;;;;;;5029183;28;20111;-48
2022/12/22 06:10:18;;;;;;;6.35;1.50;;;6.30;99.90;;;;;;5029177;28;20045;-48
2022/12/22 06:12:45;;;;;;;7.93;1.92;;;6.30;99.90;;;;;;5027021;28;20515;-51
2022/12/22 06:15:12;;;;;;;;;;;6.40;99.90;;;;;;5026835;28;20441;-53
2022/12/22 06:17:39;;;;;;;3.35;1.00;;;6.50;99.90;;;;;;5033368;28;20395;-52
2022/12/22 06:20:11;;;;;;;3.35;0.95;;;6.70;99.90;;;;;;5035832;28;20049;-56
2022/12/22 06:22:38;;;;;;;5.32;1.20;;;6.80;99.90;;;;;;5033779;28;20242;-52
2022/12/22 06:25:05;;;;;;;;;;;6.90;99.90;;;;;;5033654;28;20649;-50
2022/12/22 06:27:32;;;;;;;4.68;1.65;;;7.00;99.90;;;;;;5035419;28;20495;-49
2022/12/22 06:29:58;;;;;;;;;;;7.10;99.90;;;;;;5034773;28;20060;-49
2022/12/22 06:32:25;;;;;;;2.70;1.08;;;7.20;99.90;;;;;;5031306;28;20763;-48
2022/12/22 06:34:52;;;;;;;1.92;0.75;;;7.30;99.90;;;;;;5030070;28;20134;-48
2022/12/22 06:37:18;;;;;;;3.10;0.80;;;7.40;99.90;;;;;;5034750;28;20085;-48
2022/12/22 06:39:45;;;;;;;;;;;7.40;99.90;;;;;;5034092;28;20106;-48
2022/12/22 06:44:58;;;;;;;4.13;1.00;;;7.60;99.90;;;;;;5032639;28;20281;-49
2022/12/22 06:47:24;;;;;;;4.55;1.48;;;7.80;99.90;;;;;;5032926;28;20053;-48
2022/12/22 06:49:51;;;;;;;2.05;0.88;;;7.90;99.90;;;;;;5030471;28;20826;-53
2022/12/22 06:52:18;;;;;;;;;;;8.10;99.90;;;;;;5029044;28;20084;-48
2022/12/22 06:54:44;;;;;;;2.03;0.82;;;8.30;99.90;;;;;;5034374;28;20019;-50
2022/12/22 06:57:11;;;;;;;;;;;8.40;99.90;;;;;;5035471;28;20202;-49
2022/12/22 06:59:38;;;;;;;4.50;1.10;;;8.50;99.90;;;;;;5033986;28;20420;-49
2022/12/22 07:02:05;;;;;;;3.50;1.13;;;8.50;99.90;;;;;;5032354;28;20348;-51
2022/12/22 07:04:32;;;;;;;3.45;1.30;;;8.50;99.90;;;;;;5032934;28;20717;-52
2022/12/22 07:06:58;;;;;;;;;;;8.50;99.90;;;;;;5032361;28;20573;-52
2022/12/22 07:09:25;;;;;;;7.57;2.13;;;8.50;99.90;;;;;;5030312;28;19935;-53
2022/12/22 07:11:52;;;;;;;4.43;1.30;;;8.40;99.90;;;;;;5029800;28;20040;-54
2022/12/22 07:14:19;;;;;;;7.45;1.42;;;8.40;99.90;;;;;;5031238;28;20507;-53
2022/12/22 07:16:46;;;;;;;3.33;1.45;;;8.30;99.90;;;;;;5033365;28;21068;-53
2022/12/22 07:19:13;;;;;;;6.75;1.70;;;8.30;99.90;;;;;;5029986;28;20519;-52
2022/12/22 07:21:40;;;;;;;3.95;0.98;;;8.20;99.90;;;;;;5028186;28;20041;-52
2022/12/22 07:24:07;;;;;;;3.50;1.00;;;8.30;99.90;;;;;;5032295;28;20059;-52
2022/12/22 07:26:33;;;;;;;6.80;1.70;;;8.30;99.90;;;;;;5029593;28;20264;-52
2022/12/22 07:29:10;;;;;;;8.80;1.00;;;8.30;99.90;;;;;;5012915;28;20383;-52
2022/12/22 07:31:36;;;;;;;1.65;0.80;;;8.30;99.90;;;;;;4992719;28;20069;-50
2022/12/22 07:34:04;;;;;;;3.42;0.80;;;8.30;99.90;;;;;;4987132;28;20049;-50
2022/12/22 07:36:30;;;;;;;6.03;1.13;;;8.30;99.90;;;;;;4994576;28;20045;-49
2022/12/22 07:38:57;;;;;;;7.80;1.20;;;8.30;99.90;;;;;;4990895;28;20041;-53
2022/12/22 07:44:10;;;;;;;14.30;2.08;;;8.30;99.90;;;;;;4991465;28;20038;-51
2022/12/22 07:46:38;;;;;;;7.80;2.40;;;8.40;99.90;;;;;;4992565;28;20332;-53
2022/12/22 07:51:55;;;;;;;3.55;1.10;;;8.50;99.90;;;;;;4987896;28;20051;-52
2022/12/22 07:54:23;;;;;;;8.68;1.75;;;8.60;99.90;;;;;;4989307;28;20346;-53
2022/12/22 07:56:49;;;;;;;3.65;1.30;;;8.80;99.90;;;;;;4992881;28;20470;-53
2022/12/22 07:59:16;;;;;;;;;;;8.90;99.90;;;;;;4991137;28;20052;-53
2022/12/22 08:01:44;;;;;;;1.50;0.70;;;8.90;99.90;;;;;;4989642;28;19935;-49
2022/12/22 08:04:13;;;;;;;2.47;0.95;;;9.00;99.90;;;;;;4992072;28;20045;-52
2022/12/22 08:06:40;;;;;;;4.47;1.08;;;9.00;99.90;;;;;;4999521;28;20685;-52
2022/12/22 08:09:11;;;;;;;2.63;1.02;;;9.00;99.90;;;;;;4985508;28;20060;-54
2022/12/22 08:11:38;;;;;;;5.68;1.15;;;9.00;99.90;;;;;;4992473;28;20045;-54
2022/12/22 08:14:05;;;;;;;6.25;1.23;;;9.00;99.90;;;;;;4989211;28;20037;-54
2022/12/22 08:16:31;;;;;;;;;;;9.10;99.90;;;;;;4992959;28;20727;-53
2022/12/22 08:18:58;;;;;;;3.67;1.10;;;9.20;99.90;;;;;;4990875;28;19955;-52
2022/12/22 08:21:25;;;;;;;4.10;1.00;;;9.30;99.90;;;;;;5004084;28;20113;-55
2022/12/22 08:23:52;;;;;;;6.53;1.25;;;9.40;99.90;;;;;;5009706;28;20053;-54
2022/12/22 08:26:33;;;;;;;2.60;1.20;;;9.50;99.90;;;;;;5012911;28;20135;-52
2022/12/22 08:29:14;;;;;;;6.22;1.13;;;9.60;99.90;;;;;;4994392;28;20784;-54
2022/12/22 08:31:42;;;;;;;4.18;1.38;;;9.70;99.90;;;;;;5010047;28;20665;-54
2022/12/22 08:34:13;;;;;;;3.05;1.10;;;9.80;99.90;;;;;;5010469;28;20045;-54
2022/12/22 08:36:44;;;;;;;11.27;1.48;;;9.80;99.90;;;;;;5012265;28;20515;-54
2022/12/22 08:39:12;;;;;;;2.38;1.10;;;9.90;99.90;;;;;;5009772;28;20080;-56
2022/12/22 08:41:52;;;;;;;10.57;1.63;;;9.90;99.90;;;;;;5011330;28;20567;-54
2022/12/22 08:44:24;;;;;;;7.05;0.75;;;10.00;99.90;;;;;;5006921;28;20532;-55
2022/12/22 08:46:52;;;;;;;2.40;1.00;;;10.10;99.90;;;;;;5013610;28;20057;-51
2022/12/22 08:49:19;;;;;;;1.80;0.80;;;10.30;99.90;;;;;;5008067;28;20131;-55
2022/12/22 08:51:46;;;;;;;1.80;0.98;;;10.50;99.90;;;;;;5005180;28;20429;-52
2022/12/22 08:54:14;;;;;;;5.80;1.23;;;10.70;99.90;;;;;;5006864;28;20189;-54
2022/12/22 08:56:41;;;;;;;2.47;0.82;;;11.00;99.90;;;;;;5008044;28;20049;-57
2022/12/22 08:59:09;;;;;;;5.75;0.98;;;11.30;99.90;;;;;;5009487;28;20051;-52
2022/12/22 09:01:37;;;;;;;3.83;1.23;;;11.50;99.90;;;;;;5008638;28;20056;-53
2022/12/22 09:04:08;;;;;;;5.63;1.20;;;11.70;99.90;;;;;;5010204;28;20531;-53
2022/12/22 09:06:35;;;;;;;3.63;1.17;;;11.90;99.90;;;;;;5009241;28;20049;-54
2022/12/22 09:09:09;;;;;;;6.57;1.50;;;12.20;99.90;;;;;;5009242;28;20139;-51
2022/12/22 09:11:36;;;;;;;2.88;1.30;;;12.30;99.90;;;;;;5009601;28;20045;-55
2022/12/22 09:14:03;;;;;;;;;;;12.50;99.90;;;;;;4994654;28;20109;-55
2022/12/22 09:16:31;;;;;;;7.05;1.42;;;12.70;99.90;;;;;;5013536;28;20440;-54
2022/12/22 09:18:58;;;;;;;3.90;1.33;;;12.90;99.90;;;;;;5006444;28;20327;-54
2022/12/22 09:21:26;;;;;;;2.90;1.42;;;13.00;99.90;;;;;;5010815;28;20057;-55
2022/12/22 09:23:53;;;;;;;5.30;1.13;;;13.10;99.90;;;;;;5010376;28;20135;-54
2022/12/22 09:26:22;;;;;;;2.03;0.93;;;13.00;99.90;;;;;;5009465;28;20547;-55
2022/12/22 09:28:49;;;;;;;8.30;1.65;;;12.90;99.90;;;;;;5010743;28;20048;-54
2022/12/22 09:31:20;;;;;;;5.82;1.50;;;12.60;99.90;;;;;;5007670;28;20064;-54
2022/12/22 09:33:47;;;;;;;3.85;1.25;;;12.40;99.90;;;;;;5007315;28;20602;-54
2022/12/22 09:36:20;;;;;;;5.15;1.73;;;12.20;99.90;;;;;;5008994;28;20041;-56
2022/12/22 09:38:47;;;;;;;7.68;0.95;;;12.00;99.90;;;;;;5006262;28;20103;-55
2022/12/22 09:41:34;;;;;;;6.35;1.38;;;11.90;99.90;;;;;;5013714;28;20133;-54
2022/12/22 09:44:11;;;;;;;8.63;1.58;;;12.00;99.90;;;;;;5011773;28;20111;-52
2022/12/22 09:46:39;;;;;;;4.57;1.60;;;12.00;99.90;;;;;;5012302;28;20598;-53
2022/12/22 09:49:06;;;;;;;6.43;1.67;;;12.00;99.90;;;;;;5006436;28;20049;-54
2022/12/22 09:51:43;;;;;;;8.77;2.20;;;11.90;99.90;;;;;;5007265;28;20498;-56
2022/12/22 09:54:11;;;;;;;7.07;1.30;;;11.80;99.90;;;;;;5005495;28;20084;-55
2022/12/22 09:56:38;;;;;;;8.60;1.73;;;11.70;99.90;;;;;;5005754;28;20123;-55
2022/12/22 09:59:14;;;;;;;12.90;1.77;;;11.60;99.90;;;;;;5007335;28;20053;-52
2022/12/22 10:02:11;;;;;;;6.28;2.15;;;11.50;99.90;;;;;;5007182;28;20052;-56
2022/12/22 10:04:58;;;;;;;11.60;3.20;;;11.40;99.90;;;;;;5009587;28;20041;-51
2022/12/22 10:07:32;;;;;;;6.32;1.98;;;11.30;99.90;;;;;;5009242;28;20280;-53
2022/12/22 10:10:23;;;;;;;9.43;2.20;;;11.20;99.90;;;;;;5011394;28;20112;-53
2022/12/22 10:12:53;;;;;;;8.90;2.10;;;11.20;99.90;;;;;;5007802;28;20137;-54
2022/12/22 10:15:20;;;;;;;8.90;1.30;;;11.20;99.90;;;;;;5006897;28;20044;-54
2022/12/22 10:17:53;;;;;;;11.77;2.35;;;11.40;99.90;;;;;;5008274;28;20523;-54
2022/12/22 10:20:24;;;;;;;9.40;2.30;;;11.70;99.90;;;;;;5006167;28;20384;-56
2022/12/22 10:23:01;;;;;;;7.18;1.60;;;11.80;99.90;;;;;;5008378;28;20045;-52
2022/12/22 10:25:49;;;;;;;16.63;2.10;;;11.90;99.90;;;;;;5006458;28;20318;-53
2022/12/22 10:28:40;;;;;;;10.02;2.40;;;11.90;99.90;;;;;;5009864;28;20041;-57
2022/12/22 10:31:34;;;;;;;8.68;2.13;;;11.70;99.90;;;;;;5008852;28;20128;-56
2022/12/22 10:34:17;;;;;;;11.45;1.98;;;11.50;99.90;;;;;;5004770;28;20100;-55
2022/12/22 10:36:52;;;;;;;9.80;1.88;;;11.30;99.90;;;;;;5007662;28;20233;-55
2022/12/22 10:39:24;;;;;;;9.05;2.53;;;11.20;99.90;;;;;;5022015;28;20045;-55
2022/12/22 10:41:55;;;;;;;9.68;2.80;;;11.10;99.90;;;;;;5008001;28;20749;-55
2022/12/22 10:44:26;;;;;;;12.60;2.20;;;11.10;99.90;;;;;;5008360;28;20511;-56
2022/12/22 10:46:56;;;;;;;8.05;1.55;;;11.00;99.90;;;;;;5008289;28;20068;-54
2022/12/22 10:49:35;;;;;;;10.75;2.20;;;11.00;99.90;;;;;;5012522;28;20630;-55
2022/12/22 10:52:14;;;;;;;9.15;1.90;;;11.00;99.90;;;;;;5003757;28;20521;-55
2022/12/22 10:54:43;;;;;;;10.48;2.10;;;11.00;99.90;;;;;;5005173;28;20037;-57
2022/12/22 10:57:13;;;;;;;11.80;2.03;;;11.10;99.90;;;;;;5011219;28;20045;-51
2022/12/22 10:59:56;;;;;;;8.65;2.00;;;11.30;99.90;;;;;;5006582;28;20728;-56
2022/12/22 11:02:25;;;;;;;7.60;2.00;;;11.50;99.90;;;;;;5006563;28;20068;-55
2022/12/22 11:04:59;;;;;;;6.72;1.50;;;11.70;99.90;;;;;;5011308;28;20056;-54
2022/12/22 11:07:29;;;;;;;10.43;1.90;;;12.00;99.90;;;;;;5012042;28;20927;-56
2022/12/22 11:09:55;;;;;;;9.35;2.72;;;12.20;99.90;;;;;;5015519;28;20041;-54
2022/12/22 11:12:43;;;;;;;6.75;1.88;;;12.40;99.90;;;;;;5011734;28;20052;-52
2022/12/22 11:15:38;;;;;;;10.10;1.98;;;12.40;99.90;;;;;;5010310;28;20095;-54
2022/12/22 11:18:29;;;;;;;10.82;2.63;;;12.30;99.90;;;;;;5013928;28;20156;-53
2022/12/22 11:21:23;;;;;;;8.63;2.45;;;12.30;99.90;;;;;;5011465;28;20694;-55
2022/12/22 11:24:09;;;;;;;9.57;1.55;;;12.30;99.90;;;;;;4988321;28;20065;-54
2022/12/22 11:26:56;;;;;;;8.23;1.98;;;12.40;99.90;;;;;;5015250;28;20044;-51
2022/12/22 11:29:44;;;;;;;11.73;2.17;;;12.40;99.90;;;;;;5012341;28;20261;-54
2022/12/22 11:32:37;;;;;;;8.93;2.67;;;12.40;99.90;;;;;;5010617;28;20053;-52
2022/12/22 11:35:33;;;;;;;10.93;2.10;;;12.40;99.90;;;;;;5010305;28;20041;-56
2022/12/22 11:38:10;;;;;;;4.68;1.63;;;12.30;99.90;;;;;;5010567;28;20128;-56
2022/12/22 11:40:44;;;;;;;7.53;1.27;;;12.30;99.90;;;;;;5010383;28;20080;-55
2022/12/22 11:43:40;;;;;;;9.57;1.58;;;12.40;99.90;;;;;;5013321;28;20094;-55
2022/12/22 11:46:28;;;;;;;13.27;1.92;;;12.50;99.90;;;;;;5009492;28;20049;-55
2022/12/22 11:49:16;;;;;;;9.93;1.92;;;12.60;99.90;;;;;;4993835;28;20061;-55
2022/12/22 11:51:58;;;;;;;13.68;1.73;;;12.50;99.90;;;;;;5010422;28;20142;-55
2022/12/22 11:54:43;;;;;;;20.77;2.17;;;12.50;99.90;;;;;;5011595;28;20077;-54
2022/12/22 11:57:43;;;;;;;8.25;2.05;;;12.30;99.90;;;;;;5009468;28;20041;-54
2022/12/22 12:00:14;;;;;;;8.85;1.58;;;12.20;99.90;;;;;;5008362;28;20267;-53
2022/12/22 12:02:46;;;;;;;9.13;1.73;;;12.10;99.90;;;;;;5012037;28;20044;-54
2022/12/22 12:05:41;;;;;;;7.90;1.40;;;12.00;99.90;;;;;;5013163;28;20053;-55
2022/12/22 12:08:29;;;;;;;6.40;2.28;;;11.90;99.90;;;;;;5012252;28;20045;-55
2022/12/22 12:11:19;;;;;;;10.98;2.53;;;11.90;99.90;;;;;;5008540;28;20044;-55
2022/12/22 12:14:17;;;;;;;7.55;1.52;;;11.90;99.90;;;;;;5009214;28;20204;-53
2022/12/22 12:17:07;;;;;;;10.18;1.95;;;11.90;99.90;;;;;;5012273;28;20857;-57
2022/12/22 12:19:58;;;;;;;7.43;2.03;;;11.90;99.90;;;;;;5010617;28;20676;-56
2022/12/22 12:22:35;;;;;;;8.23;2.08;;;11.80;99.90;;;;;;5009770;28;20125;-54
2022/12/22 12:25:25;;;;;;;10.05;2.03;;;11.70;99.90;;;;;;5010964;28;20059;-55
2022/12/22 12:28:18;;;;;;;10.73;2.45;;;11.60;99.90;;;;;;4995264;28;20134;-55
2022/12/22 12:30:55;;;;;;;10.20;1.88;;;11.40;99.90;;;;;;5011485;28;20796;-56
2022/12/22 12:33:47;;;;;;;8.85;2.15;;;11.20;99.90;;;;;;5011834;28;20049;-53
2022/12/22 12:36:26;;;;;;;5.97;1.40;;;11.00;99.90;;;;;;5012690;28;20727;-56
2022/12/22 12:39:22;;;;;;;4.90;1.33;;;10.90;99.90;;;;;;5024167;28;20844;-57
2022/12/22 12:41:58;;;;;;;8.48;1.30;;;10.80;99.90;;;;;;5004891;28;20100;-54
2022/12/22 12:44:33;;;;;;;6.30;1.20;;;10.80;99.90;;;;;;4993355;28;20511;-56
2022/12/22 12:47:23;;;;;;;6.32;1.13;;;10.70;99.90;;;;;;5012900;28;20037;-53
2022/12/22 12:50:08;;;;;;;6.35;1.38;;;10.70;99.90;;;;;;5013230;28;20124;-55
2022/12/22 12:52:42;;;;;;;3.38;1.20;;;10.70;99.90;;;;;;5009223;28;20061;-55
2022/12/22 12:55:53;;;;;;;4.20;0.98;;;10.70;99.90;;;;;;5012038;28;20041;-55
2022/12/22 12:58:37;;;;;;;3.83;1.00;;;10.60;99.90;;;;;;5007120;28;20122;-56
2022/12/22 13:01:10;;;;;;;4.68;1.10;;;10.70;99.90;;;;;;5012572;28;20045;-52
2022/12/22 13:03:41;;;;;;;7.13;1.45;;;10.90;99.90;;;;;;5011542;28;20136;-56
2022/12/22 13:06:49;;;;;;;8.82;1.40;;;11.10;99.90;;;;;;5010248;28;20499;-55
2022/12/22 13:09:22;;;;;;;6.82;1.40;;;11.40;99.90;;;;;;5008080;28;20053;-54
2022/12/22 13:12:31;;;;;;;4.57;1.38;;;11.60;99.90;;;;;;5009080;28;20156;-54
2022/12/22 13:15:00;;;;;;;9.07;1.35;;;11.60;99.90;;;;;;5009526;28;20045;-53
2022/12/22 13:17:49;;;;;;;5.95;1.30;;;11.60;99.90;;;;;;5011719;28;20132;-56
2022/12/22 13:20:25;;;;;;;8.23;1.27;;;11.50;99.90;;;;;;5013750;28;20041;-55
2022/12/22 13:22:58;;;;;;;8.07;1.67;;;11.50;99.90;;;;;;5014763;28;20049;-56
2022/12/22 13:25:53;;;;;;;8.98;1.48;;;11.40;99.90;;;;;;5022833;28;20056;-54
2022/12/22 13:28:22;;;;;;;5.03;1.25;;;11.30;99.90;;;;;;5008843;28;20780;-55
2022/12/22 13:30:56;;;;;;;7.75;1.42;;;11.30;99.90;;;;;;5005963;28;20044;-54
2022/12/22 13:33:27;;;;;;;8.65;1.75;;;11.30;99.90;;;;;;5011308;28;20041;-56
2022/12/22 13:35:57;;;;;;;7.10;1.45;;;11.20;99.90;;;;;;5011058;28;20052;-56
2022/12/22 13:38:36;;;;;;;4.00;0.93;;;11.10;99.90;;;;;;5023361;28;20315;-56
2022/12/22 13:41:18;;;;;;;4.50;1.08;;;11.00;99.90;;;;;;5010301;28;20076;-59
2022/12/22 13:43:56;;;;;;;7.60;1.38;;;11.00;99.90;;;;;;5010499;28;20048;-56
2022/12/22 13:46:26;;;;;;;3.60;1.10;;;10.90;99.90;;;;;;5014590;28;20080;-57
2022/12/22 13:48:56;;;;;;;4.85;1.42;;;11.00;99.90;;;;;;5011273;28;20068;-56
2022/12/22 13:51:31;;;;;;;5.63;1.00;;;11.00;99.90;;;;;;5012027;28;20088;-56
2022/12/22 13:54:12;;;;;;;8.05;0.98;;;11.00;99.90;;;;;;5007181;28;20073;-55
2022/12/22 13:56:51;;;;;;;4.40;1.95;;;11.00;99.90;;;;;;5006119;28;20073;-56
2022/12/22 13:59:26;;;;;;;3.92;1.17;;;11.10;99.90;;;;;;5006102;28;20758;-52
2022/12/22 14:02:19;;;;;;;4.85;1.45;;;11.00;99.90;;;;;;5009002;28;20135;-53
2022/12/22 14:05:09;;;;;;;4.50;1.08;;;11.00;99.90;;;;;;5010110;28;20065;-53
2022/12/22 14:07:36;;;;;;;2.33;0.90;;;11.00;99.90;;;;;;5009047;28;20049;-52
2022/12/22 14:10:04;;;;;;;5.93;1.35;;;11.00;99.90;;;;;;5009153;28;20424;-54
2022/12/22 14:12:44;;;;;;;2.90;0.93;;;11.00;99.90;;;;;;5008605;28;20116;-54
2022/12/22 14:15:17;;;;;;;6.53;1.42;;;11.10;99.90;;;;;;5007950;28;20563;-55
2022/12/22 14:17:44;;;;;;;6.57;1.02;;;11.00;99.90;;;;;;5009692;28;20145;-55
2022/12/22 14:20:25;;;;;;;3.80;1.05;;;11.10;99.90;;;;;;5006161;28;20158;-53
2022/12/22 14:22:57;;;;;;;5.72;1.55;;;11.10;99.90;;;;;;5010632;28;20723;-55
2022/12/22 14:25:35;;;;;;;6.85;1.63;;;11.00;99.90;;;;;;5012550;28;20061;-53
2022/12/22 14:28:04;;;;;;;5.95;1.58;;;10.90;99.90;;;;;;5006787;28;20574;-52
2022/12/22 14:30:40;;;;;;;6.53;1.35;;;10.90;99.90;;;;;;5008977;28;20451;-53
2022/12/22 14:33:16;;;;;;;5.53;1.42;;;10.80;99.90;;;;;;5009258;28;20144;-54
2022/12/22 14:35:42;;;;;;;4.05;1.00;;;10.80;99.90;;;;;;5011520;28;20619;-51
2022/12/22 14:38:18;;;;;;;7.63;1.30;;;10.80;99.90;;;;;;5014538;28;20040;-51
2022/12/22 14:40:45;;;;;;;6.53;2.05;;;10.70;99.90;;;;;;5012001;28;20047;-53
2022/12/22 14:43:20;;;;;;;2.28;1.40;;;10.60;99.90;;;;;;5011242;28;20057;-54
2022/12/22 14:45:51;;;;;;;8.52;1.50;;;10.60;99.90;;;;;;5011550;28;20063;-52
2022/12/22 14:48:29;;;;;;;6.65;1.27;;;10.60;99.90;;;;;;5013706;28;20495;-53
2022/12/22 14:50:56;;;;;;;5.60;1.92;;;10.50;99.90;;;;;;5015487;28;20506;-50
2022/12/22 14:53:28;;;;;;;5.15;1.55;;;10.50;99.90;;;;;;5012759;28;20056;-51
2022/12/22 14:55:55;;;;;;;8.55;1.48;;;10.50;99.90;;;;;;5017999;28;21102;-53
2022/12/22 14:58:31;;;;;;;7.65;1.33;;;10.40;99.90;;;;;;5011538;28;20123;-51
2022/12/22 15:01:26;;;;;;;5.53;1.77;;;10.40;99.90;;;;;;4979316;28;20409;-51
2022/12/22 15:04:16;;;;;;;5.05;1.58;;;10.40;99.90;;;;;;5014149;28;20041;-55
2022/12/22 15:06:47;;;;;;;9.40;2.10;;;10.30;99.90;;;;;;5011099;28;20115;-55
2022/12/22 15:09:14;;;;;;;6.30;1.30;;;10.30;99.90;;;;;;5011801;28;20059;-52
2022/12/22 15:11:54;;;;;;;7.75;1.15;;;10.30;99.90;;;;;;5015261;28;20064;-55
2022/12/22 15:14:30;;;;;;;7.30;1.75;;;10.20;99.90;;;;;;4995545;28;20063;-54
2022/12/22 15:17:06;;;;;;;4.38;1.20;;;10.20;99.90;;;;;;5012890;28;20314;-55
2022/12/22 15:19:35;;;;;;;5.55;1.33;;;10.10;99.90;;;;;;5018828;28;20053;-52
2022/12/22 15:22:02;;;;;;;5.47;1.17;;;10.10;99.90;;;;;;5014638;28;20041;-55
2022/12/22 15:24:29;;;;;;;9.18;1.58;;;10.10;99.90;;;;;;5017021;28;20122;-54
2022/12/22 15:26:55;;;;;;;;;;;10.10;99.90;;;;;;5012030;28;20048;-54
2022/12/22 15:29:22;;;;;;;6.85;1.27;;;10.00;99.90;;;;;;5011751;28;19925;-53
2022/12/22 15:31:49;;;;;;;10.35;1.58;;;10.00;99.90;;;;;;5009893;28;20257;-54
2022/12/22 15:34:22;;;;;;;2.35;1.08;;;10.00;99.90;;;;;;5008052;28;20048;-54
2022/12/22 15:36:49;;;;;;;4.75;1.52;;;10.00;99.90;;;;;;5011860;28;20053;-49
2022/12/22 15:39:18;;;;;;;4.07;1.30;;;9.90;99.90;;;;;;5011058;28;20053;-51
2022/12/22 15:41:46;;;;;;;4.43;1.05;;;10.00;99.90;;;;;;5010543;28;20046;-54
2022/12/22 15:44:13;;;;;;;5.40;1.42;;;10.10;99.90;;;;;;5008868;28;20205;-52
2022/12/22 15:46:42;;;;;;;5.60;1.05;;;10.10;99.90;;;;;;5012989;28;20796;-52
2022/12/22 15:49:18;;;;;;;5.80;1.13;;;10.10;99.90;;;;;;5009745;28;20057;-56
2022/12/22 15:51:50;;;;;;;7.90;1.10;;;10.20;99.90;;;;;;5007314;28;20419;-63
2022/12/22 15:54:18;;;;;;;7.35;1.27;;;10.30;99.90;;;;;;5008345;28;20049;-67
2022/12/22 15:56:45;;;;;;;9.07;1.48;;;10.20;99.90;;;;;;5010350;28;20132;-63
2022/12/22 15:59:21;;;;;;;5.70;2.13;;;10.30;99.90;;;;;;5009661;28;20049;-64
2022/12/22 16:01:49;;;;;;;6.18;1.30;;;10.30;99.90;;;;;;5008787;28;20041;-64
2022/12/22 16:04:27;;;;;;;3.80;1.33;;;10.30;99.90;;;;;;5010709;28;20053;-63
2022/12/22 16:06:54;;;;;;;6.25;1.88;;;10.30;99.90;;;;;;5010836;28;20115;-64
2022/12/22 16:09:27;;;;;;;6.32;1.73;;;10.30;99.90;;;;;;5014185;28;20124;-64
2022/12/22 16:11:55;;;;;;;7.18;1.55;;;10.30;99.90;;;;;;4992386;28;20057;-67
2022/12/22 16:14:23;;;;;;;3.63;1.05;;;10.20;99.90;;;;;;5012777;28;20114;-62
2022/12/22 16:16:49;;;;;;;5.32;1.65;;;10.30;99.90;;;;;;5012257;28;20471;-64
2022/12/22 16:19:17;;;;;;;;;;;10.20;99.90;;;;;;5011144;28;20133;-63
2022/12/22 16:21:47;;;;;;;4.88;1.58;;;10.20;99.90;;;;;;5010866;28;19925;-62
2022/12/22 16:24:33;;;;;;;3.47;1.25;;;10.30;99.90;;;;;;5010054;28;20049;-63
2022/12/22 16:27:01;;;;;;;6.63;1.55;;;10.30;99.90;;;;;;5010333;28;20140;-63
2022/12/22 16:29:28;;;;;;;5.60;1.10;;;10.30;99.90;;;;;;5011042;28;20041;-64
2022/12/22 16:32:16;;;;;;;5.45;1.60;;;10.30;99.90;;;;;;5009955;28;20144;-62
2022/12/22 16:34:44;;;;;;;5.22;1.02;;;10.30;99.90;;;;;;5016065;28;20055;-62
2022/12/22 16:37:10;;;;;;;;;;;10.30;99.90;;;;;;5010383;28;20427;-63
2022/12/22 16:39:37;;;;;;;5.20;0.93;;;10.40;99.90;;;;;;5013355;28;19925;-63
2022/12/22 16:42:05;;;;;;;2.35;0.80;;;10.30;99.90;;;;;;5010909;28;20091;-63
2022/12/22 16:44:32;;;;;;;4.85;1.40;;;10.30;99.90;;;;;;5011071;28;20065;-63
2022/12/22 16:46:58;;;;;;;;;;;10.30;99.90;;;;;;5015455;28;20057;-63
2022/12/22 16:49:25;;;;;;;6.63;0.77;;;10.30;99.90;;;;;;5012010;28;19924;-62
2022/12/22 16:51:53;;;;;;;2.95;1.05;;;10.30;99.90;;;;;;5009356;28;20448;-64
2022/12/22 16:54:20;;;;;;;4.03;1.20;;;10.30;99.90;;;;;;5009107;28;20048;-64
2022/12/22 16:56:50;;;;;;;;;;;10.30;99.90;;;;;;5012118;28;20254;-64
2022/12/22 16:59:17;;;;;;;3.05;1.10;;;10.30;99.90;;;;;;5009969;28;20269;-65
2022/12/22 17:01:53;;;;;;;10.32;1.65;;;10.30;99.90;;;;;;4993821;28;20045;-67
2022/12/22 17:04:26;;;;;;;9.38;1.52;;;10.30;99.90;;;;;;5008477;28;20120;-64
2022/12/22 17:06:54;;;;;;;5.07;1.10;;;10.30;99.90;;;;;;4996375;28;20474;-66
2022/12/22 17:09:32;;;;;;;4.00;0.90;;;10.30;99.90;;;;;;5008031;28;20127;-66